Time,TemperatureF,DewpointF,PressureIn,WindDirection,WindDirectionDegrees,WindSpeedMPH,WindSpeedGustMPH,Humidity,HourlyPrecipIn,Conditions,Clouds,dailyrainin,SoftwareType,DateUTC
2013-03-04 00:05:00,6.8,-1.6,30.12,WNW,292,0.0,0.0,68,0.00,,,0.00,WUHU21023XXSP,2013-03-04 06:05:00,
2013-03-04 00:10:00,6.6,-1.8,30.12,WNW,292,0.0,0.0,68,0.00,,,0.00,WUHU21023XXSP,2013-03-04 06:10:00,
2013-03-04 00:16:00,6.4,-1.9,30.12,WNW,292,0.0,0.0,68,0.00,,,0.00,WUHU21023XXSP,2013-03-04 06:16:00,
2013-03-04 00:23:00,6.4,-1.9,30.12,WNW,292,0.0,0.0,68,0.00,,,0.00,WUHU21023XXSP,2013-03-04 06:23:00,
2013-03-04 00:29:00,6.1,-2.0,30.12,WNW,292,0.0,0.0,69,0.00,,,0.00,WUHU21023XXSP,2013-03-04 06:29:00,
2013-03-04 00:36:00,6.1,-2.0,30.12,WNW,292,0.0,0.0,69,0.00,,,0.00,WUHU21023XXSP,2013-03-04 06:36:00,
2013-03-04 00:42:00,6.1,-2.0,30.13,WNW,292,0.0,0.0,69,0.00,,,0.00,WUHU21023XXSP,2013-03-04 06:42:00,
2013-03-04 00:49:00,5.7,-2.3,30.13,WNW,292,0.0,0.0,69,0.00,,,0.00,WUHU21023XXSP,2013-03-04 06:49:00,
2013-03-04 00:55:00,5.5,-2.5,30.13,WNW,292,0.0,0.0,69,0.00,,,0.00,WUHU21023XXSP,2013-03-04 06:55:00,
2013-03-04 01:01:00,5.5,-2.5,30.13,WNW,292,0.0,0.0,69,0.00,,,0.00,WUHU21023XXSP,2013-03-04 07:01:00,
2013-03-04 01:08:00,5.5,-2.5,30.13,WNW,292,0.0,0.0,69,0.00,,,0.00,WUHU21023XXSP,2013-03-04 07:08:00,
2013-03-04 01:14:00,5.4,-2.4,30.13,WNW,292,0.0,0.0,70,0.00,,,0.00,WUHU21023XXSP,2013-03-04 07:14:00,
2013-03-04 01:21:00,5.4,-2.4,30.14,WNW,292,0.0,0.0,70,0.00,,,0.00,WUHU21023XXSP,2013-03-04 07:21:00,
2013-03-04 01:27:00,5.5,-2.2,30.14,WNW,292,0.0,0.0,70,0.00,,,0.00,WUHU21023XXSP,2013-03-04 07:27:00,
2013-03-04 01:34:00,5.5,-2.2,30.14,WNW,292,0.0,0.0,70,0.00,,,0.00,WUHU21023XXSP,2013-03-04 07:34:00,
2013-03-04 01:40:00,5.5,-2.2,30.14,WNW,292,0.0,0.0,70,0.00,,,0.00,WUHU21023XXSP,2013-03-04 07:40:00,
2013-03-04 01:46:00,5.4,-2.4,30.14,WNW,292,0.0,0.0,70,0.00,,,0.00,WUHU21023XXSP,2013-03-04 07:46:00,
2013-03-04 01:53:00,5.2,-2.3,30.14,WNW,292,0.0,0.0,71,0.00,,,0.00,WUHU21023XXSP,2013-03-04 07:53:00,
2013-03-04 01:59:00,5.0,-2.5,30.14,WNW,292,0.0,0.0,71,0.00,,,0.00,WUHU21023XXSP,2013-03-04 07:59:00,
2013-03-04 02:06:00,5.0,-2.5,30.14,WNW,292,0.0,0.0,71,0.00,,,0.00,WUHU21023XXSP,2013-03-04 08:06:00,
2013-03-04 02:12:00,5.0,-2.5,30.14,WNW,292,0.0,0.0,71,0.00,,,0.00,WUHU21023XXSP,2013-03-04 08:12:00,
2013-03-04 02:19:00,4.8,-2.6,30.14,WNW,292,0.0,0.0,71,0.00,,,0.00,WUHU21023XXSP,2013-03-04 08:19:00,
2013-03-04 02:25:00,4.8,-2.3,30.14,WNW,292,0.0,0.0,72,0.00,,,0.00,WUHU21023XXSP,2013-03-04 08:25:00,
2013-03-04 02:31:00,4.8,-2.3,30.14,WNW,292,0.0,0.0,72,0.00,,,0.00,WUHU21023XXSP,2013-03-04 08:31:00,
2013-03-04 02:38:00,4.8,-2.3,30.14,WNW,292,0.0,0.0,72,0.00,,,0.00,WUHU21023XXSP,2013-03-04 08:38:00,
2013-03-04 02:44:00,5.2,-2.0,30.14,WNW,292,0.0,0.0,72,0.00,,,0.00,WUHU21023XXSP,2013-03-04 08:44:00,
2013-03-04 02:51:00,5.2,-2.0,30.14,WNW,292,0.0,0.0,72,0.00,,,0.00,WUHU21023XXSP,2013-03-04 08:51:00,
2013-03-04 02:57:00,5.4,-1.8,30.13,WNW,292,0.0,0.0,72,0.00,,,0.00,WUHU21023XXSP,2013-03-04 08:57:00,
2013-03-04 03:04:00,5.4,-1.8,30.13,WNW,292,0.0,0.0,72,0.00,,,0.00,WUHU21023XXSP,2013-03-04 09:04:00,
2013-03-04 03:10:00,5.4,-1.8,30.13,WNW,292,0.0,0.0,72,0.00,,,0.00,WUHU21023XXSP,2013-03-04 09:10:00,
2013-03-04 03:16:00,5.4,-1.8,30.13,WNW,292,0.0,0.0,72,0.00,,,0.00,WUHU21023XXSP,2013-03-04 09:16:00,
2013-03-04 03:23:00,5.4,-1.8,30.13,WNW,292,0.0,0.0,72,0.00,,,0.00,WUHU21023XXSP,2013-03-04 09:23:00,
2013-03-04 03:29:00,5.5,-1.6,30.13,WNW,292,0.0,0.0,72,0.00,,,0.00,WUHU21023XXSP,2013-03-04 09:29:00,
2013-03-04 03:36:00,5.5,-1.6,30.14,WNW,292,0.0,0.0,72,0.00,,,0.00,WUHU21023XXSP,2013-03-04 09:36:00,
2013-03-04 03:42:00,5.7,-1.2,30.14,WNW,292,0.0,0.0,73,0.00,,,0.00,WUHU21023XXSP,2013-03-04 09:42:00,
2013-03-04 03:49:00,5.7,-1.2,30.14,WNW,292,0.0,0.0,73,0.00,,,0.00,WUHU21023XXSP,2013-03-04 09:49:00,
2013-03-04 03:55:00,5.9,-1.0,30.14,WNW,292,0.0,0.0,73,0.00,,,0.00,WUHU21023XXSP,2013-03-04 09:55:00,
2013-03-04 04:02:00,6.1,-0.8,30.14,WNW,292,0.0,0.0,73,0.00,,,0.00,WUHU21023XXSP,2013-03-04 10:02:00,
2013-03-04 04:08:00,6.1,-0.8,30.14,WNW,292,0.0,0.0,73,0.00,,,0.00,WUHU21023XXSP,2013-03-04 10:08:00,
2013-03-04 04:14:00,6.1,-0.8,30.14,WNW,292,0.0,0.0,73,0.00,,,0.00,WUHU21023XXSP,2013-03-04 10:14:00,
2013-03-04 04:21:00,6.3,-0.3,30.14,WNW,292,0.0,0.0,74,0.00,,,0.00,WUHU21023XXSP,2013-03-04 10:21:00,
2013-03-04 04:27:00,6.4,-0.4,30.15,WNW,292,0.0,0.0,73,0.00,,,0.00,WUHU21023XXSP,2013-03-04 10:27:00,
2013-03-04 04:34:00,6.3,-0.6,30.14,WNW,292,0.0,0.0,73,0.00,,,0.00,WUHU21023XXSP,2013-03-04 10:34:00,
2013-03-04 04:40:00,6.4,-0.4,30.14,WNW,292,0.0,0.0,73,0.00,,,0.00,WUHU21023XXSP,2013-03-04 10:40:00,
2013-03-04 04:46:00,6.4,-0.4,30.14,WNW,292,0.0,0.0,73,0.00,,,0.00,WUHU21023XXSP,2013-03-04 10:46:00,
2013-03-04 04:53:00,6.4,-0.4,30.14,WNW,292,0.0,0.0,73,0.00,,,0.00,WUHU21023XXSP,2013-03-04 10:53:00,
2013-03-04 04:59:00,6.4,-0.4,30.15,WNW,292,0.0,0.0,73,0.00,,,0.00,WUHU21023XXSP,2013-03-04 10:59:00,
2013-03-04 05:06:00,6.4,-0.4,30.14,WNW,292,0.0,0.0,73,0.00,,,0.00,WUHU21023XXSP,2013-03-04 11:06:00,
2013-03-04 05:12:00,6.4,-0.4,30.14,WNW,292,0.0,0.0,73,0.00,,,0.00,WUHU21023XXSP,2013-03-04 11:12:00,
2013-03-04 05:19:00,6.6,-0.3,30.14,WNW,292,0.0,0.0,73,0.00,,,0.00,WUHU21023XXSP,2013-03-04 11:19:00,
2013-03-04 05:25:00,6.6,-0.3,30.14,WNW,292,0.0,0.0,73,0.00,,,0.00,WUHU21023XXSP,2013-03-04 11:25:00,
2013-03-04 05:31:00,6.6,-0.3,30.13,NW,315,0.0,0.0,73,0.00,,,0.00,WUHU21023XXSP,2013-03-04 11:31:00,
2013-03-04 05:38:00,6.8,-0.1,30.13,NW,315,0.0,0.0,73,0.00,,,0.00,WUHU21023XXSP,2013-03-04 11:38:00,
2013-03-04 05:44:00,7.0,0.1,30.13,NW,315,0.0,0.0,73,0.00,,,0.00,WUHU21023XXSP,2013-03-04 11:44:00,
2013-03-04 05:51:00,7.2,0.3,30.14,NW,315,0.0,0.0,73,0.00,,,0.00,WUHU21023XXSP,2013-03-04 11:51:00,
2013-03-04 05:57:00,7.5,0.6,30.13,NW,315,0.0,0.0,73,0.00,,,0.00,WUHU21023XXSP,2013-03-04 11:57:00,
2013-03-04 06:04:00,7.5,0.9,30.13,NW,315,0.0,0.0,74,0.00,,,0.00,WUHU21023XXSP,2013-03-04 12:04:00,
2013-03-04 06:10:00,7.9,1.3,30.13,NW,315,0.0,0.0,74,0.00,,,0.00,WUHU21023XXSP,2013-03-04 12:10:00,
2013-03-04 06:16:00,8.1,1.5,30.13,NW,315,0.0,0.0,74,0.00,,,0.00,WUHU21023XXSP,2013-03-04 12:16:00,
2013-03-04 06:23:00,8.2,1.7,30.13,NW,315,0.0,0.0,74,0.00,,,0.00,WUHU21023XXSP,2013-03-04 12:23:00,
2013-03-04 06:29:00,8.4,1.8,30.13,NW,315,0.0,0.0,74,0.00,,,0.00,WUHU21023XXSP,2013-03-04 12:29:00,
2013-03-04 06:36:00,8.8,2.2,30.13,NW,315,0.0,0.0,74,0.00,,,0.00,WUHU21023XXSP,2013-03-04 12:36:00,
2013-03-04 06:42:00,9.1,2.8,30.13,NW,315,0.0,0.0,75,0.00,,,0.00,WUHU21023XXSP,2013-03-04 12:42:00,
2013-03-04 06:49:00,9.3,2.9,30.13,NW,315,0.0,0.0,75,0.00,,,0.00,WUHU21023XXSP,2013-03-04 12:49:00,
2013-03-04 06:55:00,9.7,3.3,30.13,NW,315,0.0,0.0,75,0.00,,,0.00,WUHU21023XXSP,2013-03-04 12:55:00,
2013-03-04 07:01:00,10.0,3.6,30.14,North,0,0.0,0.0,75,0.00,,,0.00,WUHU21023XXSP,2013-03-04 13:01:00,
2013-03-04 07:08:00,10.4,3.9,30.14,North,0,0.0,0.0,75,0.00,,,0.00,WUHU21023XXSP,2013-03-04 13:08:00,
2013-03-04 07:14:00,10.8,4.3,30.13,North,0,0.0,0.0,75,0.00,,,0.00,WUHU21023XXSP,2013-03-04 13:14:00,
2013-03-04 07:21:00,11.1,4.6,30.14,North,0,0.0,0.0,75,0.00,,,0.00,WUHU21023XXSP,2013-03-04 13:21:00,
2013-03-04 07:27:00,11.5,5.0,30.14,North,0,0.0,0.0,75,0.00,,,0.00,WUHU21023XXSP,2013-03-04 13:27:00,
2013-03-04 07:34:00,12.0,5.5,30.14,North,0,0.0,0.0,75,0.00,,,0.00,WUHU21023XXSP,2013-03-04 13:34:00,
2013-03-04 07:40:00,12.6,6.1,30.14,North,0,0.0,0.0,75,0.00,,,0.00,WUHU21023XXSP,2013-03-04 13:40:00,
2013-03-04 07:46:00,13.3,6.8,30.14,North,0,0.0,0.0,75,0.00,,,0.00,WUHU21023XXSP,2013-03-04 13:46:00,
2013-03-04 07:53:00,13.8,7.6,30.14,NNE,22,0.0,0.0,76,0.00,,,0.00,WUHU21023XXSP,2013-03-04 13:53:00,
2013-03-04 07:59:00,14.4,8.1,30.14,NE,45,0.0,0.0,76,0.00,,,0.00,WUHU21023XXSP,2013-03-04 13:59:00,
2013-03-04 08:06:00,15.3,9.0,30.14,NE,45,0.0,0.0,76,0.00,,,0.00,WUHU21023XXSP,2013-03-04 14:06:00,
2013-03-04 08:12:00,16.0,9.4,30.14,NE,45,0.0,3.0,75,0.00,,,0.00,WUHU21023XXSP,2013-03-04 14:12:00,
2013-03-04 08:18:00,16.5,9.9,30.13,NE,45,0.0,3.0,75,0.00,,,0.00,WUHU21023XXSP,2013-03-04 14:18:00,
2013-03-04 08:25:00,17.4,10.8,30.13,NE,45,0.0,0.0,75,0.00,,,0.00,WUHU21023XXSP,2013-03-04 14:25:00,
2013-03-04 08:31:00,18.1,11.4,30.13,ENE,67,3.0,3.0,75,0.00,,,0.00,WUHU21023XXSP,2013-03-04 14:31:00,
2013-03-04 08:38:00,19.0,12.3,30.13,NE,45,0.0,3.0,75,0.00,,,0.00,WUHU21023XXSP,2013-03-04 14:38:00,
2013-03-04 08:44:00,19.8,12.7,30.13,NE,45,0.0,0.0,74,0.00,,,0.00,WUHU21023XXSP,2013-03-04 14:44:00,
2013-03-04 08:51:00,20.8,13.8,30.13,NE,45,5.0,5.0,74,0.00,,,0.00,WUHU21023XXSP,2013-03-04 14:51:00,
2013-03-04 08:57:00,21.7,14.7,30.13,ENE,67,4.0,5.0,74,0.00,,,0.00,WUHU21023XXSP,2013-03-04 14:57:00,
2013-03-04 09:03:00,22.6,15.3,30.13,ENE,67,0.0,4.0,73,0.00,,,0.00,WUHU21023XXSP,2013-03-04 15:03:00,
2013-03-04 09:10:00,23.5,16.1,30.13,ENE,67,0.0,4.0,73,0.00,,,0.00,WUHU21023XXSP,2013-03-04 15:10:00,
2013-03-04 09:16:00,24.4,16.6,30.13,ENE,67,0.0,0.0,72,0.00,,,0.00,WUHU21023XXSP,2013-03-04 15:16:00,
2013-03-04 09:23:00,25.3,17.5,30.13,ENE,67,0.0,0.0,72,0.00,,,0.00,WUHU21023XXSP,2013-03-04 15:23:00,
2013-03-04 09:29:00,26.4,18.3,30.13,East,90,0.0,0.0,71,0.00,,,0.00,WUHU21023XXSP,2013-03-04 15:29:00,
2013-03-04 09:36:00,27.7,19.5,30.12,ENE,67,7.0,7.0,71,0.00,,,0.00,WUHU21023XXSP,2013-03-04 15:36:00,
2013-03-04 09:42:00,28.8,20.3,30.12,ENE,67,0.0,7.0,70,0.00,,,0.00,WUHU21023XXSP,2013-03-04 15:42:00,
2013-03-04 09:48:00,29.1,20.2,30.12,ENE,67,5.0,5.0,69,0.00,,,0.00,WUHU21023XXSP,2013-03-04 15:48:00,
2013-03-04 09:55:00,29.7,20.4,30.12,ENE,67,0.0,5.0,68,0.00,,,0.00,WUHU21023XXSP,2013-03-04 15:55:00,
2013-03-04 10:01:00,30.2,20.8,30.11,ENE,67,1.0,1.0,68,0.00,,,0.00,WUHU21023XXSP,2013-03-04 16:01:00,
2013-03-04 10:08:00,30.7,21.4,30.11,ENE,67,0.0,13.0,68,0.00,,,0.00,WUHU21023XXSP,2013-03-04 16:08:00,
2013-03-04 10:14:00,31.3,21.6,30.11,NE,45,0.0,7.0,67,0.00,,,0.00,WUHU21023XXSP,2013-03-04 16:14:00,
2013-03-04 10:21:00,31.8,22.1,30.11,ENE,67,0.0,0.0,67,0.00,,,0.00,WUHU21023XXSP,2013-03-04 16:21:00,
2013-03-04 10:27:00,32.2,22.4,30.11,ENE,67,0.0,5.0,67,0.00,,,0.00,WUHU21023XXSP,2013-03-04 16:27:00,
2013-03-04 10:33:00,32.5,22.4,30.11,East,90,0.0,7.0,66,0.00,,,0.00,WUHU21023XXSP,2013-03-04 16:33:00,
2013-03-04 10:40:00,33.1,22.9,30.11,ENE,67,0.0,7.0,66,0.00,,,0.00,WUHU21023XXSP,2013-03-04 16:40:00,
2013-03-04 10:46:00,33.6,23.4,30.11,SE,135,0.0,4.0,66,0.00,,,0.00,WUHU21023XXSP,2013-03-04 16:46:00,
2013-03-04 10:53:00,34.3,23.7,30.10,ENE,67,0.0,4.0,65,0.00,,,0.00,WUHU21023XXSP,2013-03-04 16:53:00,
2013-03-04 10:59:00,34.5,23.5,30.10,SSE,157,2.0,2.0,64,0.00,,,0.00,WUHU21023XXSP,2013-03-04 16:59:00,
2013-03-04 11:06:00,34.3,23.0,30.09,SE,135,0.0,5.0,63,0.00,,,0.00,WUHU21023XXSP,2013-03-04 17:06:00,
2013-03-04 11:12:00,34.3,23.0,30.10,ENE,67,7.0,7.0,63,0.00,,,0.00,WUHU21023XXSP,2013-03-04 17:12:00,
2013-03-04 11:18:00,34.3,23.0,30.10,ENE,67,8.0,9.0,63,0.00,,,0.00,WUHU21023XXSP,2013-03-04 17:18:00,
2013-03-04 11:25:00,34.3,23.0,30.10,SSE,157,2.0,8.0,63,0.00,,,0.00,WUHU21023XXSP,2013-03-04 17:25:00,
2013-03-04 11:31:00,34.3,23.0,30.10,SE,135,0.0,9.0,63,0.00,,,0.00,WUHU21023XXSP,2013-03-04 17:31:00,
2013-03-04 11:38:00,34.2,22.8,30.09,ESE,112,2.0,9.0,63,0.00,,,0.00,WUHU21023XXSP,2013-03-04 17:38:00,
2013-03-04 11:44:00,34.3,23.0,30.09,ESE,112,0.0,2.0,63,0.00,,,0.00,WUHU21023XXSP,2013-03-04 17:44:00,
2013-03-04 11:51:00,34.3,23.0,30.09,SSE,157,0.0,7.0,63,0.00,,,0.00,WUHU21023XXSP,2013-03-04 17:51:00,
2013-03-04 11:57:00,34.3,22.6,30.09,ENE,67,6.0,7.0,62,0.00,,,0.00,WUHU21023XXSP,2013-03-04 17:57:00,
2013-03-04 12:03:00,34.3,22.6,30.09,NE,45,0.0,7.0,62,0.00,,,0.00,WUHU21023XXSP,2013-03-04 18:03:00,
2013-03-04 12:10:00,34.3,22.3,30.08,SE,135,8.0,8.0,61,0.00,,,0.00,WUHU21023XXSP,2013-03-04 18:10:00,
2013-03-04 12:16:00,34.3,22.6,30.08,SE,135,3.0,9.0,62,0.00,,,0.00,WUHU21023XXSP,2013-03-04 18:16:00,
2013-03-04 12:23:00,34.3,22.6,30.08,SE,135,0.0,7.0,62,0.00,,,0.00,WUHU21023XXSP,2013-03-04 18:23:00,
2013-03-04 12:29:00,34.3,22.6,30.08,SE,135,2.0,3.0,62,0.00,,,0.00,WUHU21023XXSP,2013-03-04 18:29:00,
2013-03-04 12:31:00,34.3,22.6,30.08,ESE,112,0.0,3.0,62,0.00,,,0.00,WUHU21023XXSP,2013-03-04 18:31:00,
2013-03-04 12:38:00,34.9,22.8,30.08,SSE,157,5.0,5.0,61,0.00,,,0.00,WUHU21023XXSP,2013-03-04 18:38:00,
2013-03-04 12:40:00,34.9,22.8,30.08,SE,135,0.0,5.0,61,0.00,,,0.00,WUHU21023XXSP,2013-03-04 18:40:00,
2013-03-04 12:46:00,34.9,22.8,30.08,ENE,67,14.0,14.0,61,0.00,,,0.00,WUHU21023XXSP,2013-03-04 18:46:00,
2013-03-04 12:53:00,34.9,22.8,30.07,East,90,5.0,14.0,61,0.00,,,0.00,WUHU21023XXSP,2013-03-04 18:53:00,
2013-03-04 12:59:00,34.7,22.8,30.07,SE,135,6.0,10.0,60,0.00,,,0.00,WUHU21023XXSP,2013-03-04 18:59:00,
2013-03-04 13:05:00,34.3,21.9,30.07,ESE,112,0.0,6.0,60,0.00,,,0.00,WUHU21023XXSP,2013-03-04 19:05:00,
2013-03-04 13:12:00,34.3,22.3,30.06,NE,45,7.0,7.0,61,0.00,,,0.00,WUHU21023XXSP,2013-03-04 19:12:00,
2013-03-04 13:18:00,34.3,22.3,30.06,SE,135,0.0,7.0,61,0.00,,,0.00,WUHU21023XXSP,2013-03-04 19:18:00,
2013-03-04 13:25:00,34.3,22.3,30.06,ENE,67,0.0,0.0,61,0.00,,,0.00,WUHU21023XXSP,2013-03-04 19:25:00,
2013-03-04 13:31:00,34.7,22.6,30.06,ENE,67,0.0,5.0,61,0.00,,,0.00,WUHU21023XXSP,2013-03-04 19:31:00,
2013-03-04 13:38:00,34.9,22.8,30.05,ESE,112,0.0,5.0,61,0.00,,,0.00,WUHU21023XXSP,2013-03-04 19:38:00,
2013-03-04 13:44:00,34.9,22.8,30.05,SSE,157,10.0,10.0,60,0.00,,,0.00,WUHU21023XXSP,2013-03-04 19:44:00,
2013-03-04 13:50:00,34.7,22.5,30.05,ESE,112,0.0,10.0,60,0.00,,,0.00,WUHU21023XXSP,2013-03-04 19:50:00,
2013-03-04 13:57:00,34.7,22.6,30.05,SE,135,0.0,0.0,61,0.00,,,0.00,WUHU21023XXSP,2013-03-04 19:57:00,
2013-03-04 14:03:00,34.3,22.3,30.05,ENE,67,0.0,4.0,61,0.00,,,0.00,WUHU21023XXSP,2013-03-04 20:03:00,
2013-03-04 14:10:00,34.3,22.3,30.05,ENE,67,0.0,11.0,61,0.00,,,0.00,WUHU21023XXSP,2013-03-04 20:10:00,
2013-03-04 14:16:00,34.3,22.3,30.05,SE,135,0.0,11.0,61,0.00,,,0.00,WUHU21023XXSP,2013-03-04 20:16:00,
2013-03-04 14:23:00,34.3,22.3,30.05,ESE,112,0.0,5.0,61,0.00,,,0.00,WUHU21023XXSP,2013-03-04 20:23:00,
2013-03-04 14:29:00,34.2,22.5,30.06,NE,45,0.0,0.0,62,0.00,,,0.00,WUHU21023XXSP,2013-03-04 20:29:00,
2013-03-04 14:35:00,34.2,22.8,30.05,ENE,67,5.0,5.0,63,0.00,,,0.00,WUHU21023XXSP,2013-03-04 20:35:00,
2013-03-04 14:42:00,34.2,22.8,30.05,ENE,67,0.0,5.0,63,0.00,,,0.00,WUHU21023XXSP,2013-03-04 20:42:00,
2013-03-04 14:48:00,34.2,22.8,30.05,NE,45,0.0,7.0,63,0.00,,,0.00,WUHU21023XXSP,2013-03-04 20:48:00,
2013-03-04 14:55:00,33.8,22.5,30.06,ENE,67,0.0,11.0,63,0.00,,,0.00,WUHU21023XXSP,2013-03-04 20:55:00,
2013-03-04 15:01:00,33.6,22.3,30.06,NE,45,0.0,11.0,63,0.00,,,0.00,WUHU21023XXSP,2013-03-04 21:01:00,
2013-03-04 15:08:00,33.4,22.1,30.06,ENE,67,0.0,8.0,63,0.00,,,0.00,WUHU21023XXSP,2013-03-04 21:08:00,
2013-03-04 15:14:00,33.1,22.2,30.06,ENE,67,0.0,0.0,64,0.00,,,0.00,WUHU21023XXSP,2013-03-04 21:14:00,
2013-03-04 15:20:00,32.9,22.0,30.06,NNW,337,3.0,6.0,64,0.00,,,0.00,WUHU21023XXSP,2013-03-04 21:20:00,
2013-03-04 15:27:00,32.5,21.7,30.06,ENE,67,0.0,8.0,64,0.00,,,0.00,WUHU21023XXSP,2013-03-04 21:27:00,
2013-03-04 15:33:00,32.4,21.9,30.06,NE,45,2.0,5.0,65,0.00,,,0.00,WUHU21023XXSP,2013-03-04 21:33:00,
2013-03-04 15:40:00,32.2,21.7,30.06,ENE,67,5.0,7.0,65,0.00,,,0.00,WUHU21023XXSP,2013-03-04 21:40:00,
2013-03-04 15:46:00,32.0,21.9,30.06,East,90,8.0,8.0,66,0.00,,,0.00,WUHU21023XXSP,2013-03-04 21:46:00,
2013-03-04 15:53:00,31.8,22.1,30.05,NE,45,7.0,8.0,67,0.00,,,0.00,WUHU21023XXSP,2013-03-04 21:53:00,
2013-03-04 15:59:00,31.6,21.9,30.05,SE,135,0.0,7.0,67,0.00,,,0.00,WUHU21023XXSP,2013-03-04 21:59:00,
2013-03-04 16:05:00,31.3,21.6,30.05,ENE,67,0.0,7.0,67,0.00,,,0.00,WUHU21023XXSP,2013-03-04 22:05:00,
2013-03-04 16:12:00,31.3,21.6,30.05,ESE,112,8.0,8.0,67,0.00,,,0.00,WUHU21023XXSP,2013-03-04 22:12:00,
2013-03-04 16:18:00,31.1,21.7,30.05,NE,45,0.0,8.0,68,0.00,,,0.00,WUHU21023XXSP,2013-03-04 22:18:00,
2013-03-04 16:25:00,31.1,21.7,30.05,NE,45,0.0,2.0,68,0.00,,,0.00,WUHU21023XXSP,2013-03-04 22:25:00,
2013-03-04 16:31:00,30.9,21.9,30.05,NE,45,7.0,10.0,69,0.00,,,0.00,WUHU21023XXSP,2013-03-04 22:31:00,
2013-03-04 16:38:00,30.7,21.7,30.05,ENE,67,0.0,10.0,69,0.00,,,0.00,WUHU21023XXSP,2013-03-04 22:38:00,
2013-03-04 16:44:00,30.6,21.6,30.05,ENE,67,3.0,3.0,69,0.00,,,0.00,WUHU21023XXSP,2013-03-04 22:44:00,
2013-03-04 16:50:00,30.2,21.9,30.05,East,90,13.0,13.0,71,0.00,,,0.00,WUHU21023XXSP,2013-03-04 22:50:00,
2013-03-04 16:57:00,30.0,21.7,30.05,ESE,112,10.0,16.0,71,0.00,,,0.00,WUHU21023XXSP,2013-03-04 22:57:00,
2013-03-04 17:03:00,29.5,21.5,30.05,NE,45,10.0,16.0,72,0.00,,,0.00,WUHU21023XXSP,2013-03-04 23:03:00,
2013-03-04 17:10:00,29.1,21.2,30.05,NE,45,1.0,10.0,72,0.00,,,0.00,WUHU21023XXSP,2013-03-04 23:10:00,
2013-03-04 17:16:00,28.9,21.3,30.05,ENE,67,11.0,11.0,73,0.00,,,0.00,WUHU21023XXSP,2013-03-04 23:16:00,
2013-03-04 17:23:00,28.8,21.2,30.05,ENE,67,6.0,11.0,73,0.00,,,0.00,WUHU21023XXSP,2013-03-04 23:23:00,
2013-03-04 17:29:00,28.6,21.0,30.05,NE,45,4.0,7.0,73,0.00,,,0.00,WUHU21023XXSP,2013-03-04 23:29:00,
2013-03-04 17:35:00,28.4,21.2,30.05,NE,45,0.0,9.0,74,0.00,,,0.00,WUHU21023XXSP,2013-03-04 23:35:00,
2013-03-04 17:42:00,28.2,21.0,30.05,East,90,6.0,6.0,74,0.00,,,0.00,WUHU21023XXSP,2013-03-04 23:42:00,
2013-03-04 17:48:00,28.2,20.7,30.05,NE,45,4.0,13.0,73,0.00,,,0.00,WUHU21023XXSP,2013-03-04 23:48:00,
2013-03-04 17:55:00,28.0,20.8,30.05,NNE,22,4.0,14.0,74,0.00,,,0.00,WUHU21023XXSP,2013-03-04 23:55:00,
2013-03-04 18:01:00,28.0,20.8,30.04,NE,45,5.0,6.0,74,0.00,,,0.00,WUHU21023XXSP,2013-03-05 00:01:00,
2013-03-04 18:08:00,28.0,20.8,30.05,ENE,67,4.0,5.0,74,0.00,,,0.00,WUHU21023XXSP,2013-03-05 00:08:00,
2013-03-04 18:14:00,27.7,20.8,30.05,ENE,67,4.0,11.0,75,0.00,,,0.00,WUHU21023XXSP,2013-03-05 00:14:00,
2013-03-04 18:20:00,27.7,20.8,30.05,NE,45,2.0,11.0,75,0.00,,,0.00,WUHU21023XXSP,2013-03-05 00:20:00,
2013-03-04 18:27:00,27.7,20.8,30.05,ENE,67,7.0,7.0,75,0.00,,,0.00,WUHU21023XXSP,2013-03-05 00:27:00,
2013-03-04 18:33:00,27.7,20.8,30.05,ENE,67,0.0,7.0,75,0.00,,,0.00,WUHU21023XXSP,2013-03-05 00:33:00,
2013-03-04 18:40:00,27.9,20.9,30.05,ENE,67,7.0,7.0,75,0.00,,,0.00,WUHU21023XXSP,2013-03-05 00:40:00,
2013-03-04 18:46:00,27.9,20.9,30.05,ENE,67,4.0,7.0,75,0.00,,,0.00,WUHU21023XXSP,2013-03-05 00:46:00,
2013-03-04 18:52:00,27.9,20.9,30.05,East,90,7.0,11.0,75,0.00,,,0.00,WUHU21023XXSP,2013-03-05 00:52:00,
2013-03-04 18:59:00,28.0,21.1,30.06,NE,45,5.0,11.0,75,0.00,,,0.00,WUHU21023XXSP,2013-03-05 00:59:00,
2013-03-04 19:05:00,28.0,21.1,30.06,ENE,67,0.0,7.0,75,0.00,,,0.00,WUHU21023XXSP,2013-03-05 01:05:00,
2013-03-04 19:12:00,28.0,21.1,30.06,ENE,67,11.0,11.0,75,0.00,,,0.00,WUHU21023XXSP,2013-03-05 01:12:00,
2013-03-04 19:18:00,28.0,21.1,30.06,ENE,67,7.0,11.0,75,0.00,,,0.00,WUHU21023XXSP,2013-03-05 01:18:00,
2013-03-04 19:25:00,28.0,21.1,30.06,East,90,5.0,7.0,75,0.00,,,0.00,WUHU21023XXSP,2013-03-05 01:25:00,
2013-03-04 19:31:00,28.0,21.1,30.06,ENE,67,9.0,9.0,75,0.00,,,0.00,WUHU21023XXSP,2013-03-05 01:31:00,
2013-03-04 19:38:00,28.0,21.1,30.05,NE,45,4.0,9.0,75,0.00,,,0.00,WUHU21023XXSP,2013-03-05 01:38:00,
2013-03-04 22:55:00,28.9,22.0,30.05,ENE,67,7.0,7.0,75,0.00,,,0.00,WUHU21023XXSP,2013-03-05 04:55:00,